sensor_id;sensor_type;location;lat;lon;timestamp;pressure;altitude;pressure_sealevel;temperature;humidity
79242;BME280;68670;48.720;9.118;2023-04-03T00:01:18;97563.69;;;2.89;69.10
79242;BME280;68670;48.720;9.118;2023-04-03T00:03:43;97566.69;;;2.94;68.58
79242;BME280;68670;48.720;9.118;2023-04-03T00:06:09;97567.06;;;2.91;68.83
79242;BME280;68670;48.720;9.118;2023-04-03T00:08:38;97558.22;;;2.97;69.85
79242;BME280;68670;48.720;9.118;2023-04-03T00:11:04;97558.56;;;2.94;68.51
79242;BME280;68670;48.720;9.118;2023-04-03T00:13:33;97562.28;;;2.93;67.61
79242;BME280;68670;48.720;9.118;2023-04-03T00:15:59;97558.47;;;2.87;67.84
79242;BME280;68670;48.720;9.118;2023-04-03T00:18:24;97552.94;;;2.81;67.75
79242;BME280;68670;48.720;9.118;2023-04-03T00:20:49;97559.00;;;2.83;67.56
79242;BME280;68670;48.720;9.118;2023-04-03T00:23:17;97561.69;;;2.83;68.47
79242;BME280;68670;48.720;9.118;2023-04-03T00:25:45;97566.28;;;2.82;67.61
79242;BME280;68670;48.720;9.118;2023-04-03T00:28:11;97565.78;;;2.79;67.77
79242;BME280;68670;48.720;9.118;2023-04-03T00:30:37;97556.28;;;2.83;67.91
79242;BME280;68670;48.720;9.118;2023-04-03T00:33:04;97564.09;;;2.78;67.73
79242;BME280;68670;48.720;9.118;2023-04-03T00:35:34;97562.09;;;2.72;67.84
79242;BME280;68670;48.720;9.118;2023-04-03T00:37:59;97564.09;;;2.78;67.55
79242;BME280;68670;48.720;9.118;2023-04-03T00:40:27;97557.34;;;2.74;67.74
79242;BME280;68670;48.720;9.118;2023-04-03T00:42:58;97554.81;;;2.72;66.93
79242;BME280;68670;48.720;9.118;2023-04-03T00:47:56;97551.31;;;2.63;67.73
79242;BME280;68670;48.720;9.118;2023-04-03T00:50:25;97558.91;;;2.68;68.46
79242;BME280;68670;48.720;9.118;2023-04-03T00:52:51;97554.34;;;2.68;67.46
79242;BME280;68670;48.720;9.118;2023-04-03T00:55:16;97554.81;;;2.72;66.50
79242;BME280;68670;48.720;9.118;2023-04-03T00:57:42;97547.09;;;2.61;67.18
79242;BME280;68670;48.720;9.118;2023-04-03T01:00:12;97553.34;;;2.61;67.11
79242;BME280;68670;48.720;9.118;2023-04-03T01:02:39;97558.66;;;2.55;68.05
79242;BME280;68670;48.720;9.118;2023-04-03T01:05:06;97558.66;;;2.55;67.59
79242;BME280;68670;48.720;9.118;2023-04-03T01:07:32;97550.38;;;2.56;67.40
79242;BME280;68670;48.720;9.118;2023-04-03T01:10:01;97552.06;;;2.57;68.45
79242;BME280;68670;48.720;9.118;2023-04-03T01:12:33;97549.16;;;2.59;67.61
79242;BME280;68670;48.720;9.118;2023-04-03T01:15:05;97549.38;;;2.49;67.91
79242;BME280;68670;48.720;9.118;2023-04-03T01:20:24;97549.38;;;2.49;67.44
79242;BME280;68670;48.720;9.118;2023-04-03T01:23:12;97549.88;;;2.53;67.86
79242;BME280;68670;48.720;9.118;2023-04-03T01:25:47;97548.88;;;2.46;68.36
79242;BME280;68670;48.720;9.118;2023-04-03T01:28:24;97550.06;;;2.43;68.32
79242;BME280;68670;48.720;9.118;2023-04-03T01:31:28;97554.50;;;2.36;68.03
79242;BME280;68670;48.720;9.118;2023-04-03T01:33:56;97557.22;;;2.28;68.57
79242;BME280;68670;48.720;9.118;2023-04-03T01:36:28;97553.50;;;2.29;68.68
79242;BME280;68670;48.720;9.118;2023-04-03T01:38:55;97547.75;;;2.32;69.17
79242;BME280;68670;48.720;9.118;2023-04-03T01:41:21;97554.00;;;2.32;68.89
79242;BME280;68670;48.720;9.118;2023-04-03T01:43:47;97555.56;;;2.27;68.17
79242;BME280;68670;48.720;9.118;2023-04-03T01:46:15;97555.19;;;2.30;67.47
79242;BME280;68670;48.720;9.118;2023-04-03T01:48:40;97561.44;;;2.30;67.51
79242;BME280;68670;48.720;9.118;2023-04-03T01:51:06;97554.16;;;2.39;67.27
79242;BME280;68670;48.720;9.118;2023-04-03T01:53:32;97556.88;;;2.31;67.80
79242;BME280;68670;48.720;9.118;2023-04-03T01:55:57;97551.00;;;2.27;67.35
79242;BME280;68670;48.720;9.118;2023-04-03T01:58:22;97549.13;;;2.28;67.93
79242;BME280;68670;48.720;9.118;2023-04-03T02:00:51;97551.81;;;2.28;67.32
79242;BME280;68670;48.720;9.118;2023-04-03T02:03:18;97552.19;;;2.25;68.61
79242;BME280;68670;48.720;9.118;2023-04-03T02:05:46;97547.13;;;2.22;68.23
79242;BME280;68670;48.720;9.118;2023-04-03T02:08:14;97549.97;;;2.28;67.32
79242;BME280;68670;48.720;9.118;2023-04-03T02:10:43;97558.28;;;2.27;68.09
79242;BME280;68670;48.720;9.118;2023-04-03T02:13:08;97547.47;;;2.27;68.46
79242;BME280;68670;48.720;9.118;2023-04-03T02:15:37;97549.66;;;2.23;68.61
79242;BME280;68670;48.720;9.118;2023-04-03T02:18:05;97555.56;;;2.27;67.96
79242;BME280;68670;48.720;9.118;2023-04-03T02:20:33;97544.44;;;2.22;68.58
79242;BME280;68670;48.720;9.118;2023-04-03T02:22:59;97557.88;;;2.30;68.96
79242;BME280;68670;48.720;9.118;2023-04-03T02:25:24;97563.13;;;2.31;68.13
79242;BME280;68670;48.720;9.118;2023-04-03T02:27:50;97554.91;;;2.25;69.07
79242;BME280;68670;48.720;9.118;2023-04-03T02:30:15;97560.31;;;2.25;69.78
79242;BME280;68670;48.720;9.118;2023-04-03T02:32:44;97552.19;;;2.25;69.21
79242;BME280;68670;48.720;9.118;2023-04-03T02:35:10;97567.69;;;2.31;68.32
79242;BME280;68670;48.720;9.118;2023-04-03T02:37:37;97555.91;;;2.24;68.43
79242;BME280;68670;48.720;9.118;2023-04-03T02:40:05;97559.28;;;2.26;68.57
79242;BME280;68670;48.720;9.118;2023-04-03T02:42:35;97557.22;;;2.28;68.70
79242;BME280;68670;48.720;9.118;2023-04-03T02:45:05;97556.16;;;2.45;66.29
79242;BME280;68670;48.720;9.118;2023-04-03T02:47:31;97561.06;;;2.42;65.90
79242;BME280;68670;48.720;9.118;2023-04-03T02:50:00;97561.94;;;2.34;66.69
79242;BME280;68670;48.720;9.118;2023-04-03T02:52:26;97559.22;;;2.34;67.42
79242;BME280;68670;48.720;9.118;2023-04-03T02:54:53;97556.53;;;2.34;67.06
79242;BME280;68670;48.720;9.118;2023-04-03T02:57:21;97563.13;;;2.31;66.52
79242;BME280;68670;48.720;9.118;2023-04-03T02:59:49;97560.75;;;2.36;65.54
79242;BME280;68670;48.720;9.118;2023-04-03T03:02:16;97561.25;;;2.40;65.23
79242;BME280;68670;48.720;9.118;2023-04-03T03:04:44;97567.69;;;2.31;66.09
79242;BME280;68670;48.720;9.118;2023-04-03T03:07:12;97563.97;;;2.32;64.38
79242;BME280;68670;48.720;9.118;2023-04-03T03:09:37;97558.22;;;2.35;64.78
79242;BME280;68670;48.720;9.118;2023-04-03T03:12:03;97564.13;;;2.30;66.20
79242;BME280;68670;48.720;9.118;2023-04-03T03:14:28;97558.91;;;2.29;66.01
79242;BME280;68670;48.720;9.118;2023-04-03T03:16:56;97554.50;;;2.36;64.02
79242;BME280;68670;48.720;9.118;2023-04-03T03:19:23;97548.94;;;2.29;65.13
79242;BME280;68670;48.720;9.118;2023-04-03T03:21:49;97552.19;;;2.25;66.00
79242;BME280;68670;48.720;9.118;2023-04-03T03:24:15;97542.69;;;2.29;64.89
79242;BME280;68670;48.720;9.118;2023-04-03T03:26:41;97553.88;;;2.26;65.26
79242;BME280;68670;48.720;9.118;2023-04-03T03:29:08;97547.41;;;2.35;63.72
79242;BME280;68670;48.720;9.118;2023-04-03T03:31:36;97552.19;;;2.25;64.54
79242;BME280;68670;48.720;9.118;2023-04-03T03:34:01;97547.66;;;2.17;65.14
79242;BME280;68670;48.720;9.118;2023-04-03T03:36:29;97547.00;;;2.15;65.34
79242;BME280;68670;48.720;9.118;2023-04-03T03:38:54;97549.84;;;2.22;64.83
79242;BME280;68670;48.720;9.118;2023-04-03T03:41:19;97542.41;;;2.24;64.67
79242;BME280;68670;48.720;9.118;2023-04-03T03:43:47;97551.53;;;2.23;65.21
79242;BME280;68670;48.720;9.118;2023-04-03T03:46:13;97549.50;;;2.25;65.30
79242;BME280;68670;48.720;9.118;2023-04-03T03:48:38;97550.16;;;2.27;65.06
79242;BME280;68670;48.720;9.118;2023-04-03T03:51:04;97546.78;;;2.25;64.58
79242;BME280;68670;48.720;9.118;2023-04-03T03:53:29;97546.72;;;2.33;65.27
79242;BME280;68670;48.720;9.118;2023-04-03T03:55:55;97554.53;;;2.28;65.07
79242;BME280;68670;48.720;9.118;2023-04-03T03:58:20;97544.25;;;2.23;65.26
79242;BME280;68670;48.720;9.118;2023-04-03T04:00:50;97548.81;;;2.23;65.79
79242;BME280;68670;48.720;9.118;2023-04-03T04:03:18;97552.19;;;2.25;64.69
79242;BME280;68670;48.720;9.118;2023-04-03T04:05:43;97554.91;;;2.25;65.43
79242;BME280;68670;48.720;9.118;2023-04-03T04:08:11;97555.25;;;2.14;66.28
79242;BME280;68670;48.720;9.118;2023-04-03T04:10:37;97549.50;;;2.17;66.58
79242;BME280;68670;48.720;9.118;2023-04-03T04:13:02;97550.44;;;2.32;64.97
79242;BME280;68670;48.720;9.118;2023-04-03T04:15:30;97549.50;;;2.17;65.12
79242;BME280;68670;48.720;9.118;2023-04-03T04:17:58;97557.28;;;2.12;65.01
79242;BME280;68670;48.720;9.118;2023-04-03T04:20:25;97558.81;;;2.14;64.65
79242;BME280;68670;48.720;9.118;2023-04-03T04:22:53;97557.16;;;2.05;66.42
79242;BME280;68670;48.720;9.118;2023-04-03T04:25:20;97557.28;;;2.12;65.68
79242;BME280;68670;48.720;9.118;2023-04-03T04:27:48;97557.78;;;2.15;65.64
79242;BME280;68670;48.720;9.118;2023-04-03T04:30:13;97548.53;;;2.10;65.81
79242;BME280;68670;48.720;9.118;2023-04-03T04:32:39;97550.34;;;2.17;64.54
79242;BME280;68670;48.720;9.118;2023-04-03T04:35:04;97554.41;;;2.21;63.70
79242;BME280;68670;48.720;9.118;2023-04-03T04:37:30;97554.28;;;2.07;65.09
79242;BME280;68670;48.720;9.118;2023-04-03T04:39:56;97556.94;;;2.15;64.23
79242;BME280;68670;48.720;9.118;2023-04-03T04:42:21;97552.25;;;2.09;64.89
79242;BME280;68670;48.720;9.118;2023-04-03T04:44:47;97558.63;;;2.16;64.48
79242;BME280;68670;48.720;9.118;2023-04-03T04:47:12;97559.81;;;2.13;64.38
79242;BME280;68670;48.720;9.118;2023-04-03T04:49:37;97547.47;;;2.19;63.42
79242;BME280;68670;48.720;9.118;2023-04-03T04:52:03;97557.28;;;2.20;62.94
79242;BME280;68670;48.720;9.118;2023-04-03T04:54:28;97557.94;;;2.22;62.87
79242;BME280;68670;48.720;9.118;2023-04-03T04:56:56;97554.91;;;2.17;63.73
79242;BME280;68670;48.720;9.118;2023-04-03T04:59:26;97561.66;;;2.21;62.26
79242;BME280;68670;48.720;9.118;2023-04-03T05:01:51;97554.22;;;2.23;62.03
79242;BME280;68670;48.720;9.118;2023-04-03T05:04:17;97569.59;;;2.22;61.96
79242;BME280;68670;48.720;9.118;2023-04-03T05:06:45;97571.28;;;2.23;62.34
79242;BME280;68670;48.720;9.118;2023-04-03T05:09:12;97574.84;;;2.16;61.94
79242;BME280;68670;48.720;9.118;2023-04-03T05:11:38;97572.16;;;2.08;60.29
79242;BME280;68670;48.720;9.118;2023-04-03T05:14:05;97568.09;;;2.12;60.41
79242;BME280;68670;48.720;9.118;2023-04-03T05:16:36;97565.72;;;2.17;60.01
79242;BME280;68670;48.720;9.118;2023-04-03T05:19:01;97571.13;;;2.17;60.06
79242;BME280;68670;48.720;9.118;2023-04-03T05:21:29;97575.00;;;2.22;60.50
79242;BME280;68670;48.720;9.118;2023-04-03T05:23:58;97573.81;;;2.25;59.76
79242;BME280;68670;48.720;9.118;2023-04-03T05:26:24;97577.19;;;2.27;59.33
79242;BME280;68670;48.720;9.118;2023-04-03T05:28:51;97584.63;;;2.25;59.31
79242;BME280;68670;48.720;9.118;2023-04-03T05:31:16;97575.13;;;2.29;60.50
79242;BME280;68670;48.720;9.118;2023-04-03T05:33:42;97581.38;;;2.29;59.12
79242;BME280;68670;48.720;9.118;2023-04-03T05:36:10;97588.34;;;2.24;58.95
79242;BME280;68670;48.720;9.118;2023-04-03T05:38:38;97577.72;;;2.22;58.83
79242;BME280;68670;48.720;9.118;2023-04-03T05:41:03;97586.31;;;2.26;58.88
79242;BME280;68670;48.720;9.118;2023-04-03T05:43:31;97585.94;;;2.29;58.90
79242;BME280;68670;48.720;9.118;2023-04-03T05:45:57;97584.25;;;2.28;59.48
79242;BME280;68670;48.720;9.118;2023-04-03T05:48:28;97588.28;;;2.32;60.40
79242;BME280;68670;48.720;9.118;2023-04-03T05:50:55;97585.22;;;2.43;60.34
79242;BME280;68670;48.720;9.118;2023-04-03T05:53:27;97593.69;;;2.40;60.62
79242;BME280;68670;48.720;9.118;2023-04-03T05:55:53;97584.91;;;2.38;61.30
79242;BME280;68670;48.720;9.118;2023-04-03T05:58:19;97597.38;;;2.47;60.70
79242;BME280;68670;48.720;9.118;2023-04-03T06:00:44;97591.47;;;2.44;60.91
79242;BME280;68670;48.720;9.118;2023-04-03T06:03:12;97602.81;;;2.31;61.26
79242;BME280;68670;48.720;9.118;2023-04-03T06:05:38;97606.06;;;2.26;61.97
79242;BME280;68670;48.720;9.118;2023-04-03T06:08:03;97601.19;;;2.22;62.29
79242;BME280;68670;48.720;9.118;2023-04-03T06:10:28;97601.19;;;2.22;62.36
79242;BME280;68670;48.720;9.118;2023-04-03T06:12:54;97608.63;;;2.20;62.16
79242;BME280;68670;48.720;9.118;2023-04-03T06:15:22;97603.38;;;2.26;61.98
79242;BME280;68670;48.720;9.118;2023-04-03T06:17:47;97609.28;;;2.22;62.23
79242;BME280;68670;48.720;9.118;2023-04-03T06:20:18;97604.56;;;2.24;62.62
79242;BME280;68670;48.720;9.118;2023-04-03T06:22:44;97602.81;;;2.31;63.28
79242;BME280;68670;48.720;9.118;2023-04-03T06:25:09;97616.00;;;2.34;62.21
79242;BME280;68670;48.720;9.118;2023-04-03T06:27:37;97607.38;;;2.39;62.39
79242;BME280;68670;48.720;9.118;2023-04-03T06:30:04;97613.44;;;2.41;62.62
79242;BME280;68670;48.720;9.118;2023-04-03T06:32:29;97619.66;;;2.49;62.78
79242;BME280;68670;48.720;9.118;2023-04-03T06:34:55;97619.50;;;2.51;63.17
79242;BME280;68670;48.720;9.118;2023-04-03T06:37:23;97616.94;;;2.57;62.46
79242;BME280;68670;48.720;9.118;2023-04-03T06:39:51;97615.19;;;2.64;61.36
79242;BME280;68670;48.720;9.118;2023-04-03T06:42:16;97613.34;;;2.65;62.77
79242;BME280;68670;48.720;9.118;2023-04-03T06:44:42;97616.22;;;2.63;61.34
79242;BME280;68670;48.720;9.118;2023-04-03T06:47:11;97619.94;;;2.62;61.47
79242;BME280;68670;48.720;9.118;2023-04-03T06:49:37;97614.19;;;2.65;61.76
79242;BME280;68670;48.720;9.118;2023-04-03T06:52:03;97607.31;;;2.55;61.60
79242;BME280;68670;48.720;9.118;2023-04-03T06:54:29;97621.94;;;2.68;62.43
79242;BME280;68670;48.720;9.118;2023-04-03T06:56:55;97616.50;;;2.77;61.82
79242;BME280;68670;48.720;9.118;2023-04-03T06:59:20;97623.56;;;2.86;62.67
79242;BME280;68670;48.720;9.118;2023-04-03T07:01:46;97620.50;;;2.89;60.87
79242;BME280;68670;48.720;9.118;2023-04-03T07:04:12;97632.03;;;2.83;60.69
79242;BME280;68670;48.720;9.118;2023-04-03T07:06:39;97621.22;;;2.83;61.38
79242;BME280;68670;48.720;9.118;2023-04-03T07:09:10;97623.59;;;2.78;61.03
79242;BME280;68670;48.720;9.118;2023-04-03T07:11:36;97629.66;;;2.88;60.09
79242;BME280;68670;48.720;9.118;2023-04-03T07:14:04;97632.84;;;2.91;61.91
79242;BME280;68670;48.720;9.118;2023-04-03T07:16:29;97640.59;;;2.94;61.51
79242;BME280;68670;48.720;9.118;2023-04-03T07:18:57;97635.31;;;3.01;61.19
79242;BME280;68670;48.720;9.118;2023-04-03T07:21:23;97630.84;;;2.85;61.75
79242;BME280;68670;48.720;9.118;2023-04-03T07:23:49;97642.28;;;2.95;61.39
79242;BME280;68670;48.720;9.118;2023-04-03T07:26:14;97636.69;;;2.97;61.88
79242;BME280;68670;48.720;9.118;2023-04-03T07:28:39;97639.34;;;3.05;62.57
79242;BME280;68670;48.720;9.118;2023-04-03T07:31:12;97643.41;;;3.09;62.54
79242;BME280;68670;48.720;9.118;2023-04-03T07:33:40;97643.28;;;3.25;63.83
79242;BME280;68670;48.720;9.118;2023-04-03T07:36:06;97646.59;;;3.35;62.74
79242;BME280;68670;48.720;9.118;2023-04-03T07:38:33;97641.75;;;3.54;61.43
79242;BME280;68670;48.720;9.118;2023-04-03T07:41:02;97649.56;;;3.49;60.77
79242;BME280;68670;48.720;9.118;2023-04-03T07:43:27;97655.66;;;3.51;60.43
79242;BME280;68670;48.720;9.118;2023-04-03T07:45:52;97649.50;;;3.34;60.16
79242;BME280;68670;48.720;9.118;2023-04-03T07:48:21;97652.09;;;3.50;60.54
79242;BME280;68670;48.720;9.118;2023-04-03T07:50:47;97654.38;;;3.61;60.40
79242;BME280;68670;48.720;9.118;2023-04-03T07:53:15;97655.13;;;3.55;59.69
79242;BME280;68670;48.720;9.118;2023-04-03T07:55:41;97662.81;;;3.44;59.96
79242;BME280;68670;48.720;9.118;2023-04-03T07:58:14;97656.19;;;3.46;61.27
79242;BME280;68670;48.720;9.118;2023-04-03T08:00:45;97655.00;;;3.49;60.38
79242;BME280;68670;48.720;9.118;2023-04-03T08:03:11;97664.25;;;3.54;59.98
79242;BME280;68670;48.720;9.118;2023-04-03T08:05:46;97668.34;;;3.73;58.96
79242;BME280;68670;48.720;9.118;2023-04-03T08:08:14;97665.31;;;3.91;59.83
79242;BME280;68670;48.720;9.118;2023-04-03T08:10:39;97652.69;;;3.83;60.22
79242;BME280;68670;48.720;9.118;2023-04-03T08:13:05;97657.00;;;3.92;60.08
79242;BME280;68670;48.720;9.118;2023-04-03T08:15:31;97664.81;;;4.10;58.31
79242;BME280;68670;48.720;9.118;2023-04-03T08:17:57;97663.53;;;4.21;60.88
79242;BME280;68670;48.720;9.118;2023-04-03T08:20:23;97665.50;;;4.27;58.34
79242;BME280;68670;48.720;9.118;2023-04-03T08:22:48;97661.38;;;4.31;58.53
79242;BME280;68670;48.720;9.118;2023-04-03T08:25:16;97668.59;;;4.38;60.36
79242;BME280;68670;48.720;9.118;2023-04-03T08:27:45;97657.84;;;4.45;58.67
79242;BME280;68670;48.720;9.118;2023-04-03T08:30:13;97658.03;;;4.58;58.68
79242;BME280;68670;48.720;9.118;2023-04-03T08:32:39;97667.03;;;4.73;58.37
79242;BME280;68670;48.720;9.118;2023-04-03T08:35:07;97666.66;;;4.77;56.50
79242;BME280;68670;48.720;9.118;2023-04-03T08:37:35;97663.09;;;4.61;57.05
79242;BME280;68670;48.720;9.118;2023-04-03T08:40:06;97663.66;;;4.71;60.23
79242;BME280;68670;48.720;9.118;2023-04-03T08:42:47;97666.56;;;4.70;58.50
79242;BME280;68670;48.720;9.118;2023-04-03T08:48:06;97672.47;;;4.73;57.69
79242;BME280;68670;48.720;9.118;2023-04-03T08:50:46;97673.56;;;4.64;59.52
79242;BME280;68670;48.720;9.118;2023-04-03T08:53:15;97666.28;;;4.80;59.80
79242;BME280;68670;48.720;9.118;2023-04-03T08:55:49;97668.72;;;4.75;59.18
79242;BME280;68670;48.720;9.118;2023-04-03T08:58:18;97664.75;;;4.92;58.76
79242;BME280;68670;48.720;9.118;2023-04-03T09:00:59;97665.31;;;5.02;57.96
79242;BME280;68670;48.720;9.118;2023-04-03T09:03:30;97675.16;;;5.03;58.80
79242;BME280;68670;48.720;9.118;2023-04-03T09:08:42;97676.22;;;5.38;58.82
79242;BME280;68670;48.720;9.118;2023-04-03T09:16:21;97665.84;;;5.84;57.24
79242;BME280;68670;48.720;9.118;2023-04-03T09:18:57;97672.06;;;5.78;58.12
79242;BME280;68670;48.720;9.118;2023-04-03T09:21:38;97669.06;;;5.73;56.97
79242;BME280;68670;48.720;9.118;2023-04-03T09:24:06;97672.06;;;5.78;56.28
79242;BME280;68670;48.720;9.118;2023-04-03T09:26:46;97669.56;;;5.40;54.75
79242;BME280;68670;48.720;9.118;2023-04-03T09:29:22;97667.06;;;5.24;57.26
79242;BME280;68670;48.720;9.118;2023-04-03T09:31:50;97668.03;;;5.02;55.84
79242;BME280;68670;48.720;9.118;2023-04-03T09:34:25;97667.31;;;5.29;56.91
79242;BME280;68670;48.720;9.118;2023-04-03T09:36:56;97671.06;;;5.28;55.81
79242;BME280;68670;48.720;9.118;2023-04-03T09:39:27;97670.84;;;5.45;55.41
79242;BME280;68670;48.720;9.118;2023-04-03T09:42:01;97670.09;;;5.51;54.83
79242;BME280;68670;48.720;9.118;2023-04-03T09:46:54;97673.31;;;5.39;53.49
79242;BME280;68670;48.720;9.118;2023-04-03T09:49:19;97679.72;;;5.17;53.91
79242;BME280;68670;48.720;9.118;2023-04-03T09:51:44;97674.31;;;5.17;52.17
79242;BME280;68670;48.720;9.118;2023-04-03T09:54:37;97665.34;;;5.38;55.72
79242;BME280;68670;48.720;9.118;2023-04-03T09:57:12;97672.94;;;5.43;51.70
79242;BME280;68670;48.720;9.118;2023-04-03T09:59:47;97672.28;;;5.62;50.85
79242;BME280;68670;48.720;9.118;2023-04-03T10:04:54;97671.81;;;5.22;53.82
79242;BME280;68670;48.720;9.118;2023-04-03T10:07:40;97673.38;;;5.10;53.34
79242;BME280;68670;48.720;9.118;2023-04-03T10:10:21;97670.19;;;4.92;53.68
79242;BME280;68670;48.720;9.118;2023-04-03T10:13:06;97669.06;;;5.01;54.79
79242;BME280;68670;48.720;9.118;2023-04-03T10:15:41;97666.25;;;5.09;54.45
79242;BME280;68670;48.720;9.118;2023-04-03T10:21:29;97663.25;;;5.04;55.31
79242;BME280;68670;48.720;9.118;2023-04-03T10:24:14;97662.63;;;4.87;55.77
79242;BME280;68670;48.720;9.118;2023-04-03T10:26:57;97659.72;;;4.89;56.42
79242;BME280;68670;48.720;9.118;2023-04-03T10:29:36;97667.28;;;4.93;55.83
79242;BME280;68670;48.720;9.118;2023-04-03T10:32:21;97664.59;;;4.79;57.06
79242;BME280;68670;48.720;9.118;2023-04-03T10:34:58;97667.41;;;4.70;55.26
79242;BME280;68670;48.720;9.118;2023-04-03T10:37:50;97648.59;;;4.69;54.84
79242;BME280;68670;48.720;9.118;2023-04-03T10:43:04;97663.34;;;4.96;51.76
79242;BME280;68670;48.720;9.118;2023-04-03T10:46:04;97664.28;;;4.88;53.40
79242;BME280;68670;48.720;9.118;2023-04-03T10:59:23;97661.78;;;4.72;53.16
79242;BME280;68670;48.720;9.118;2023-04-03T11:02:16;97673.28;;;4.59;53.48
79242;BME280;68670;48.720;9.118;2023-04-03T11:04:45;97664.31;;;4.73;55.60
79242;BME280;68670;48.720;9.118;2023-04-03T11:07:25;97667.66;;;4.90;54.40
79242;BME280;68670;48.720;9.118;2023-04-03T11:09:55;97658.03;;;4.88;55.65
79242;BME280;68670;48.720;9.118;2023-04-03T11:12:31;97667.47;;;4.92;54.61
79242;BME280;68670;48.720;9.118;2023-04-03T11:15:02;97663.19;;;4.83;55.14
79242;BME280;68670;48.720;9.118;2023-04-03T11:17:39;97662.91;;;4.78;55.47
79242;BME280;68670;48.720;9.118;2023-04-03T11:20:31;97658.97;;;4.65;55.54
79242;BME280;68670;48.720;9.118;2023-04-03T11:23:06;97660.66;;;4.66;55.34
79242;BME280;68670;48.720;9.118;2023-04-03T11:25:38;97652.25;;;4.61;55.01
79242;BME280;68670;48.720;9.118;2023-04-03T11:28:06;97654.50;;;4.72;54.76
79242;BME280;68670;48.720;9.118;2023-04-03T11:31:07;97651.88;;;4.64;52.56
79242;BME280;68670;48.720;9.118;2023-04-03T11:36:30;97650.09;;;4.71;52.89
79242;BME280;68670;48.720;9.118;2023-04-03T11:39:02;97649.16;;;4.79;52.12
79242;BME280;68670;48.720;9.118;2023-04-03T11:41:31;97642.34;;;4.83;52.07
79242;BME280;68670;48.720;9.118;2023-04-03T11:44:12;97648.59;;;4.84;51.96
79242;BME280;68670;48.720;9.118;2023-04-03T11:46:57;97645.31;;;4.73;50.83
79242;BME280;68670;48.720;9.118;2023-04-03T12:08:58;97623.34;;;5.19;50.86
79242;BME280;68670;48.720;9.118;2023-04-03T12:31:50;97615.53;;;4.95;52.80
79242;BME280;68670;48.720;9.118;2023-04-03T12:37:03;97620.81;;;4.82;52.43
79242;BME280;68670;48.720;9.118;2023-04-03T12:39:52;97612.94;;;4.87;52.79
79242;BME280;68670;48.720;9.118;2023-04-03T12:42:44;97616.84;;;4.99;51.30
79242;BME280;68670;48.720;9.118;2023-04-03T12:47:42;97619.19;;;5.23;50.47
79242;BME280;68670;48.720;9.118;2023-04-03T12:50:21;97617.44;;;5.52;49.69
79242;BME280;68670;48.720;9.118;2023-04-03T12:53:13;97610.16;;;5.59;50.75
79242;BME280;68670;48.720;9.118;2023-04-03T12:55:40;97607.13;;;5.68;49.18
79242;BME280;68670;48.720;9.118;2023-04-03T12:58:16;97606.44;;;5.81;48.03
79242;BME280;68670;48.720;9.118;2023-04-03T13:00:43;97607.06;;;5.62;49.54
79242;BME280;68670;48.720;9.118;2023-04-03T13:03:27;97608.38;;;5.45;47.27
79242;BME280;68670;48.720;9.118;2023-04-03T13:06:01;97612.13;;;5.44;47.77
79242;BME280;68670;48.720;9.118;2023-04-03T13:08:31;97608.75;;;5.42;48.63
79242;BME280;68670;48.720;9.118;2023-04-03T13:11:06;97599.84;;;5.48;47.11
79242;BME280;68670;48.720;9.118;2023-04-03T13:13:34;97606.41;;;5.60;45.78
79242;BME280;68670;48.720;9.118;2023-04-03T13:16:08;97597.09;;;5.69;48.06
79242;BME280;68670;48.720;9.118;2023-04-03T13:18:36;97591.00;;;5.88;49.34
79242;BME280;68670;48.720;9.118;2023-04-03T13:23:29;97589.19;;;6.23;46.33
79242;BME280;68670;48.720;9.118;2023-04-03T13:25:57;97582.91;;;6.23;46.21
79242;BME280;68670;48.720;9.118;2023-04-03T13:28:31;97592.72;;;6.45;46.64
79242;BME280;68670;48.720;9.118;2023-04-03T13:31:14;97589.56;;;6.89;45.84
79242;BME280;68670;48.720;9.118;2023-04-03T13:36:22;97582.09;;;6.98;43.95
79242;BME280;68670;48.720;9.118;2023-04-03T13:39:17;97576.88;;;7.03;44.55
79242;BME280;68670;48.720;9.118;2023-04-03T13:41:48;97588.63;;;6.62;44.46
79242;BME280;68670;48.720;9.118;2023-04-03T13:44:35;97579.56;;;6.55;44.21
79242;BME280;68670;48.720;9.118;2023-04-03T13:49:41;97591.50;;;6.54;45.78
79242;BME280;68670;48.720;9.118;2023-04-03T13:54:56;97590.00;;;6.93;44.51
79242;BME280;68670;48.720;9.118;2023-04-03T13:57:24;97589.88;;;7.07;48.25
79242;BME280;68670;48.720;9.118;2023-04-03T13:59:50;97588.00;;;7.08;44.16
79242;BME280;68670;48.720;9.118;2023-04-03T14:02:22;97590.94;;;6.65;43.43
79242;BME280;68670;48.720;9.118;2023-04-03T14:04:51;97576.59;;;6.50;43.72
79242;BME280;68670;48.720;9.118;2023-04-03T14:07:24;97576.88;;;6.62;45.78
79242;BME280;68670;48.720;9.118;2023-04-03T14:09:52;97579.66;;;6.68;45.09
79242;BME280;68670;48.720;9.118;2023-04-03T14:12:30;97582.34;;;6.62;43.17
79242;BME280;68670;48.720;9.118;2023-04-03T14:15:00;97573.19;;;6.76;43.48
79242;BME280;68670;48.720;9.118;2023-04-03T14:17:29;97576.38;;;6.45;43.08
79242;BME280;68670;48.720;9.118;2023-04-03T14:19:55;97572.97;;;6.36;43.90
79242;BME280;68670;48.720;9.118;2023-04-03T14:22:27;97568.03;;;6.19;44.82
79242;BME280;68670;48.720;9.118;2023-04-03T14:24:56;97568.59;;;6.07;45.04
79242;BME280;68670;48.720;9.118;2023-04-03T14:29:51;97579.13;;;5.89;45.51
79242;BME280;68670;48.720;9.118;2023-04-03T14:32:20;97569.09;;;5.68;44.60
79242;BME280;68670;48.720;9.118;2023-04-03T14:34:47;97575.19;;;5.49;46.51
79242;BME280;68670;48.720;9.118;2023-04-03T14:37:16;97572.13;;;5.59;47.04
79242;BME280;68670;48.720;9.118;2023-04-03T14:39:46;97565.66;;;5.60;46.65
79242;BME280;68670;48.720;9.118;2023-04-03T14:42:32;97572.72;;;5.54;46.51
79242;BME280;68670;48.720;9.118;2023-04-03T14:44:59;97571.47;;;5.57;46.19
79242;BME280;68670;48.720;9.118;2023-04-03T14:47:28;97566.72;;;5.37;45.02
79242;BME280;68670;48.720;9.118;2023-04-03T14:49:54;97566.06;;;5.57;47.18
79242;BME280;68670;48.720;9.118;2023-04-03T14:52:21;97556.47;;;6.38;46.55
79242;BME280;68670;48.720;9.118;2023-04-03T14:54:48;97552.03;;;7.59;45.88
79242;BME280;68670;48.720;9.118;2023-04-03T14:57:14;97544.47;;;8.27;40.25
79242;BME280;68670;48.720;9.118;2023-04-03T14:59:43;97530.63;;;8.22;40.22
79242;BME280;68670;48.720;9.118;2023-04-03T15:04:54;97537.63;;;9.58;38.03